Time;durP1;ratioP1;P1;durP2;ratioP2;P2;SDS_P1;SDS_P2;PMS_P1;PMS_P2;Temp;Humidity;BMP_temperature;BMP_pressure;BME280_temperature;BME280_humidity;BME280_pressure;Samples;Min_cycle;Max_cycle;Signal;HPM_P1;HPM_P2
2022/08/03 00:01:37;;;;;;;5.43;2.50;;;20.10;99.90;;;;;;5050847;28;20147;-73
2022/08/03 00:04:04;;;;;;;3.40;1.88;;;20.30;99.90;;;;;;5051580;28;20386;-74
2022/08/03 00:06:30;;;;;;;9.07;2.17;;;20.20;99.90;;;;;;5051053;28;20047;-73
2022/08/03 00:08:55;;;;;;;7.43;2.92;;;20.40;99.90;;;;;;5050861;28;20017;-74
2022/08/03 00:11:21;;;;;;;5.80;2.33;;;20.10;99.90;;;;;;5051132;28;20025;-74
2022/08/03 00:13:46;;;;;;;3.58;1.83;;;20.20;99.90;;;;;;5050244;28;20466;-74
2022/08/03 00:16:12;;;;;;;3.92;2.25;;;20.20;99.90;;;;;;5050345;28;20074;-73
2022/08/03 00:18:38;;;;;;;5.20;2.13;;;20.10;99.90;;;;;;5032507;28;20418;-73
2022/08/03 00:21:04;;;;;;;6.60;2.83;;;20.00;99.90;;;;;;5050152;28;20103;-74
2022/08/03 00:23:30;;;;;;;4.28;2.00;;;20.00;99.90;;;;;;5050684;28;20121;-74
2022/08/03 00:25:56;;;;;;;5.35;1.90;;;20.00;99.90;;;;;;5049954;28;20100;-74
2022/08/03 00:28:22;;;;;;;7.50;3.90;;;19.90;99.90;;;;;;5050109;28;20393;-73
2022/08/03 00:30:47;;;;;;;7.50;2.58;;;20.00;99.90;;;;;;5050363;28;20025;-73
2022/08/03 00:33:13;;;;;;;3.53;1.85;;;20.30;99.90;;;;;;5050432;28;20028;-73
2022/08/03 00:35:39;;;;;;;7.65;1.98;;;19.80;99.90;;;;;;5050630;28;20362;-73
2022/08/03 00:38:05;;;;;;;6.45;2.00;;;20.00;99.90;;;;;;5050692;28;20040;-73
2022/08/03 00:40:30;;;;;;;4.93;2.15;;;20.80;99.90;;;;;;5050251;28;20490;-74
2022/08/03 00:42:57;;;;;;;4.30;2.00;;;19.70;99.90;;;;;;5031802;28;20037;-73
2022/08/03 00:45:31;;;;;;;8.80;1.95;;;19.60;99.90;;;;;;5049927;28;20104;-73
2022/08/03 00:47:58;;;;;;;7.45;2.30;;;19.70;99.90;;;;;;5050203;28;20036;-73
2022/08/03 00:50:26;;;;;;;4.55;2.53;;;20.20;99.90;;;;;;5050040;28;20078;-73
2022/08/03 00:52:54;;;;;;;5.97;2.40;;;19.70;99.90;;;;;;5049987;28;20020;-74
2022/08/03 00:55:20;;;;;;;7.07;2.33;;;19.60;99.90;;;;;;5050104;28;20028;-73
2022/08/03 00:57:46;;;;;;;6.45;2.50;;;19.50;99.90;;;;;;5044108;28;20029;-73
2022/08/03 01:00:14;;;;;;;8.02;3.10;;;19.50;99.90;;;;;;5032089;28;20532;-73
2022/08/03 01:02:40;;;;;;;6.10;3.30;;;19.50;99.90;;;;;;5049883;28;20043;-73
2022/08/03 01:05:06;;;;;;;6.75;3.03;;;19.40;99.90;;;;;;5050203;28;20025;-73
2022/08/03 01:08:21;;;;;;;5.28;2.60;;;19.40;99.90;;;;;;5049756;28;20024;-74
2022/08/03 01:10:56;;;;;;;5.43;2.08;;;19.40;99.90;;;;;;4945933;29;20328;-74
2022/08/03 01:13:43;;;;;;;5.18;2.10;;;19.50;99.90;;;;;;4945594;29;20560;-73
2022/08/03 01:16:36;;;;;;;8.35;2.72;;;19.30;99.90;;;;;;4949389;29;20031;-73
2022/08/03 01:19:40;;;;;;;5.47;2.17;;;19.40;99.90;;;;;;4937932;29;20047;-73
2022/08/03 01:22:33;;;;;;;5.47;2.20;;;19.30;99.90;;;;;;4949455;28;20042;-73
2022/08/03 01:25:30;;;;;;;5.90;2.88;;;19.30;99.90;;;;;;4944885;29;20035;-73
2022/08/03 01:27:55;;;;;;;6.63;2.33;;;19.30;99.90;;;;;;4948986;29;20556;-73
2022/08/03 01:30:28;;;;;;;4.22;2.05;;;19.30;99.90;;;;;;4949444;29;20146;-73
2022/08/03 01:33:11;;;;;;;9.23;2.38;;;19.40;99.90;;;;;;4949648;29;20052;-73
2022/08/03 01:35:49;;;;;;;7.72;2.15;;;19.50;99.90;;;;;;4945052;29;20039;-73
2022/08/03 01:38:21;;;;;;;7.85;2.75;;;19.20;99.90;;;;;;4947882;29;20412;-73
2022/08/03 01:40:50;;;;;;;4.28;2.33;;;19.20;99.90;;;;;;4975171;28;20486;-73
2022/08/03 01:43:18;;;;;;;7.38;2.90;;;19.20;99.90;;;;;;5049098;28;20112;-74
2022/08/03 01:45:44;;;;;;;6.45;2.38;;;19.20;99.90;;;;;;5046755;28;20013;-73
2022/08/03 01:48:14;;;;;;;5.63;2.88;;;20.60;99.90;;;;;;5031083;28;20031;-74
2022/08/03 01:50:41;;;;;;;6.45;2.17;;;19.20;99.90;;;;;;5049292;28;20017;-73
2022/08/03 01:53:08;;;;;;;6.75;2.25;;;19.10;99.90;;;;;;5049031;28;20028;-74
2022/08/03 01:55:36;;;;;;;9.13;2.88;;;19.30;99.90;;;;;;5048984;28;20032;-73
2022/08/03 01:58:03;;;;;;;5.30;2.28;;;19.10;99.90;;;;;;5049411;28;20493;-73
2022/08/03 02:00:31;;;;;;;4.45;2.30;;;19.10;99.90;;;;;;5048662;28;20021;-73
2022/08/03 02:02:57;;;;;;;6.18;2.85;;;19.00;99.90;;;;;;5049356;28;20040;-73
2022/08/03 02:05:25;;;;;;;5.97;2.83;;;19.10;99.90;;;;;;5048713;28;20466;-74
2022/08/03 02:07:52;;;;;;;10.65;3.15;;;19.00;99.90;;;;;;5046599;28;20032;-74
2022/08/03 02:10:21;;;;;;;11.55;3.33;;;19.00;99.90;;;;;;5048255;28;20035;-73
2022/08/03 02:12:48;;;;;;;6.78;3.45;;;18.90;99.90;;;;;;5031499;28;20028;-73
2022/08/03 02:15:15;;;;;;;7.85;2.85;;;19.10;99.90;;;;;;5048346;28;20386;-74
2022/08/03 02:17:43;;;;;;;7.13;2.45;;;19.00;99.90;;;;;;5049231;28;20017;-74
2022/08/03 02:20:11;;;;;;;9.30;3.75;;;18.90;99.90;;;;;;5049018;28;20021;-73
2022/08/03 02:22:39;;;;;;;8.40;3.50;;;18.90;99.90;;;;;;5049220;28;20063;-73
2022/08/03 02:25:07;;;;;;;6.43;3.33;;;19.00;99.90;;;;;;5048549;28;20032;-73
2022/08/03 02:27:34;;;;;;;9.20;3.20;;;19.00;99.90;;;;;;5048294;28;20025;-74
2022/08/03 02:30:07;;;;;;;9.88;3.25;;;18.60;99.90;;;;;;5049181;28;20041;-74
2022/08/03 02:32:39;;;;;;;5.43;2.53;;;18.90;99.90;;;;;;5046407;28;20052;-71
2022/08/03 02:35:08;;;;;;;3.75;2.65;;;18.80;99.90;;;;;;5031109;28;20025;-71
2022/08/03 02:37:40;;;;;;;4.07;2.30;;;18.80;99.90;;;;;;5047799;28;20031;-71
2022/08/03 02:40:08;;;;;;;6.10;2.33;;;18.80;99.90;;;;;;5049327;28;20771;-71
2022/08/03 02:42:34;;;;;;;3.78;2.78;;;18.80;99.90;;;;;;5048030;28;20087;-71
2022/08/03 02:45:04;;;;;;;6.75;3.50;;;18.80;99.90;;;;;;5048796;28;20021;-71
2022/08/03 02:47:30;;;;;;;9.82;3.00;;;18.70;99.90;;;;;;5047858;28;20337;-71
2022/08/03 02:49:59;;;;;;;6.40;2.95;;;18.70;99.90;;;;;;5052552;28;20067;-71
2022/08/03 02:52:27;;;;;;;6.47;3.35;;;18.70;99.90;;;;;;5051362;28;20021;-71
2022/08/03 02:54:57;;;;;;;3.22;2.75;;;20.80;99.90;;;;;;5052651;28;20033;-71
2022/08/03 02:57:25;;;;;;;6.50;3.20;;;18.60;99.90;;;;;;5051945;28;20127;-71
2022/08/03 02:59:52;;;;;;;6.75;3.20;;;18.60;99.90;;;;;;5052698;28;20044;-74
2022/08/03 03:02:19;;;;;;;7.20;3.60;;;18.60;99.90;;;;;;5051632;28;20108;-72
2022/08/03 03:04:45;;;;;;;7.90;3.30;;;18.60;99.90;;;;;;5052099;28;20126;-74
2022/08/03 03:07:16;;;;;;;7.57;4.72;;;18.50;99.90;;;;;;5051183;28;20378;-74
2022/08/03 03:09:43;;;;;;;5.35;3.40;;;18.40;99.90;;;;;;5052302;28;20103;-74
2022/08/03 03:12:11;;;;;;;8.07;4.18;;;19.00;99.90;;;;;;5051808;28;20430;-74
2022/08/03 03:14:37;;;;;;;7.50;3.45;;;18.50;99.90;;;;;;5051756;28;20013;-71
2022/08/03 03:17:06;;;;;;;7.25;3.78;;;18.40;99.90;;;;;;5052540;28;20037;-71
2022/08/03 03:19:32;;;;;;;6.65;4.00;;;18.50;99.90;;;;;;5051361;28;20021;-72
2022/08/03 03:22:00;;;;;;;5.50;4.13;;;18.50;99.90;;;;;;5051521;28;20012;-72
2022/08/03 03:24:29;;;;;;;5.38;3.67;;;18.40;99.90;;;;;;5051348;28;20029;-72
2022/08/03 03:26:58;;;;;;;7.95;4.13;;;18.40;99.90;;;;;;5051602;28;20448;-72
2022/08/03 03:29:24;;;;;;;6.90;4.03;;;18.30;99.90;;;;;;5051363;28;20111;-71
2022/08/03 03:31:50;;;;;;;6.65;3.78;;;18.30;99.90;;;;;;5049797;28;20017;-72
2022/08/03 03:34:16;;;;;;;6.53;3.42;;;18.20;99.90;;;;;;5051421;28;20485;-71
2022/08/03 03:36:41;;;;;;;10.30;4.22;;;18.20;99.90;;;;;;5050781;28;20108;-72
2022/08/03 03:39:07;;;;;;;6.90;4.70;;;18.20;99.90;;;;;;5051530;28;20112;-72
2022/08/03 03:41:34;;;;;;;6.50;4.25;;;18.20;99.90;;;;;;5051519;28;20028;-72
2022/08/03 03:43:59;;;;;;;7.30;4.03;;;18.10;99.90;;;;;;5051095;28;20098;-74
2022/08/03 03:46:25;;;;;;;10.50;4.90;;;18.10;99.90;;;;;;5051447;28;20016;-74
2022/08/03 03:48:51;;;;;;;11.48;4.50;;;18.20;99.90;;;;;;5051011;28;20363;-72
2022/08/03 03:51:17;;;;;;;8.93;4.38;;;18.10;99.90;;;;;;5050923;28;20028;-72
2022/08/03 03:54:00;;;;;;;9.52;5.38;;;18.10;99.90;;;;;;5051356;28;20366;-73
2022/08/03 03:56:27;;;;;;;10.05;5.93;;;18.10;99.90;;;;;;5051278;28;20116;-73
2022/08/03 03:58:53;;;;;;;7.20;4.13;;;18.70;99.90;;;;;;5050976;28;20074;-73
2022/08/03 04:01:19;;;;;;;10.65;4.95;;;18.20;99.90;;;;;;5050181;28;20093;-72
2022/08/03 04:03:45;;;;;;;10.95;5.53;;;18.10;99.90;;;;;;5051133;28;20037;-73
2022/08/03 04:11:46;;;;;;;8.57;5.20;;;18.10;99.90;;;;;;5051047;28;20968;-73
2022/08/03 04:14:33;;;;;;;8.38;5.43;;;18.20;99.90;;;;;;5050606;28;20083;-73
2022/08/03 04:17:02;;;;;;;12.30;5.07;;;18.20;99.90;;;;;;5050326;28;20059;-73
2022/08/03 04:19:41;;;;;;;18.73;7.22;;;18.20;99.90;;;;;;5050565;28;20044;-73
2022/08/03 04:22:09;;;;;;;8.30;5.10;;;18.20;99.90;;;;;;5048796;28;20445;-73
2022/08/03 04:24:40;;;;;;;8.55;5.70;;;18.20;99.90;;;;;;5050952;28;20032;-73
2022/08/03 04:27:10;;;;;;;12.18;6.32;;;18.20;99.90;;;;;;5050489;28;20045;-73
2022/08/03 04:29:38;;;;;;;12.40;6.55;;;18.30;99.90;;;;;;5050623;28;20049;-73
2022/08/03 04:32:06;;;;;;;9.07;5.43;;;18.20;99.90;;;;;;5050289;28;20017;-73
2022/08/03 04:34:32;;;;;;;10.10;6.05;;;18.30;99.90;;;;;;5031943;28;20401;-73
2022/08/03 04:37:00;;;;;;;11.60;6.53;;;18.40;99.90;;;;;;5050492;28;20108;-73
2022/08/03 04:39:28;;;;;;;7.63;6.38;;;18.40;99.90;;;;;;5050360;28;20025;-73
2022/08/03 04:42:00;;;;;;;8.07;6.25;;;18.50;99.90;;;;;;5032631;28;20104;-73
2022/08/03 04:44:27;;;;;;;10.85;6.88;;;18.50;99.90;;;;;;5032237;28;20037;-73
2022/08/03 04:46:54;;;;;;;9.48;6.35;;;18.50;99.90;;;;;;5043686;28;20049;-73
2022/08/03 04:49:20;;;;;;;10.52;7.20;;;18.50;99.90;;;;;;5031537;28;20039;-73
2022/08/03 04:51:48;;;;;;;14.13;7.38;;;19.20;99.90;;;;;;5050288;28;20025;-73
2022/08/03 04:54:14;;;;;;;10.25;7.63;;;18.70;99.90;;;;;;5044951;28;20032;-73
2022/08/03 04:56:41;;;;;;;7.22;5.82;;;18.80;99.90;;;;;;5050524;28;20381;-73
2022/08/03 04:59:07;;;;;;;10.23;6.75;;;18.70;99.90;;;;;;5049998;28;20428;-73
2022/08/03 05:01:33;;;;;;;8.63;6.68;;;18.80;99.90;;;;;;5050097;28;20082;-73
2022/08/03 05:03:59;;;;;;;11.15;7.07;;;18.80;99.90;;;;;;5049162;28;20033;-73
2022/08/03 05:06:24;;;;;;;12.05;7.63;;;18.80;99.90;;;;;;5049679;28;20095;-73
2022/08/03 05:08:50;;;;;;;10.20;6.35;;;18.90;99.90;;;;;;5049935;28;20470;-73
2022/08/03 05:11:16;;;;;;;13.32;7.13;;;18.90;99.90;;;;;;5049686;28;20029;-73
2022/08/03 05:13:42;;;;;;;13.60;6.20;;;19.00;99.90;;;;;;5050150;28;20025;-73
2022/08/03 05:16:08;;;;;;;11.23;7.38;;;18.80;99.90;;;;;;5048232;28;20116;-73
2022/08/03 05:18:34;;;;;;;12.52;6.70;;;19.00;99.90;;;;;;5048638;28;20110;-74
2022/08/03 05:21:00;;;;;;;10.40;6.10;;;19.10;99.90;;;;;;5049758;28;20024;-73
2022/08/03 05:23:26;;;;;;;11.57;6.60;;;19.10;99.90;;;;;;5049397;28;20036;-73
2022/08/03 05:25:51;;;;;;;11.35;6.85;;;19.30;99.90;;;;;;5031875;28;20073;-73
2022/08/03 05:28:17;;;;;;;12.15;6.22;;;19.20;99.90;;;;;;5048787;28;20096;-73
2022/08/03 05:30:43;;;;;;;10.48;6.47;;;19.20;99.90;;;;;;5049877;28;20025;-73
2022/08/03 05:33:09;;;;;;;9.25;6.57;;;19.40;99.90;;;;;;5049170;28;20025;-73
2022/08/03 05:35:37;;;;;;;7.95;6.07;;;19.30;99.90;;;;;;5049631;28;20021;-73
2022/08/03 05:38:03;;;;;;;10.98;7.10;;;19.40;99.90;;;;;;5049222;28;20020;-73
2022/08/03 05:40:29;;;;;;;11.55;5.95;;;19.50;99.90;;;;;;5049238;28;20441;-73
2022/08/03 05:42:54;;;;;;;10.32;6.78;;;19.60;99.90;;;;;;5049294;28;20462;-73
2022/08/03 05:45:20;;;;;;;10.55;6.65;;;19.50;99.90;;;;;;5048914;28;20117;-73
2022/08/03 05:47:45;;;;;;;11.73;6.13;;;19.70;99.90;;;;;;5041260;28;20446;-74
2022/08/03 05:50:13;;;;;;;11.13;6.88;;;19.70;99.90;;;;;;5049418;28;20071;-74
2022/08/03 05:52:39;;;;;;;9.68;5.80;;;19.70;99.90;;;;;;5048819;28;20025;-74
2022/08/03 05:55:06;;;;;;;10.18;5.10;;;19.90;99.90;;;;;;5049325;28;20028;-74
2022/08/03 05:57:31;;;;;;;10.52;5.90;;;19.90;99.90;;;;;;5048846;28;20029;-74
2022/08/03 05:59:57;;;;;;;8.40;5.70;;;19.90;99.90;;;;;;5049450;28;20028;-74
2022/08/03 06:02:23;;;;;;;10.65;5.40;;;20.00;99.90;;;;;;5048009;28;20037;-74
2022/08/03 06:04:48;;;;;;;11.05;5.65;;;20.10;99.90;;;;;;5049076;28;20036;-74
2022/08/03 06:07:14;;;;;;;10.23;5.97;;;20.30;99.90;;;;;;5049173;28;20104;-75
2022/08/03 06:09:40;;;;;;;9.13;5.15;;;20.20;99.90;;;;;;5048745;28;20052;-76
2022/08/03 06:12:06;;;;;;;12.73;4.93;;;20.20;99.90;;;;;;5049517;28;20100;-75
2022/08/03 06:14:31;;;;;;;10.65;4.90;;;20.30;99.90;;;;;;5049002;28;20542;-75
2022/08/03 06:16:57;;;;;;;8.55;5.32;;;20.50;99.90;;;;;;5048257;28;20025;-75
2022/08/03 06:19:23;;;;;;;9.95;5.32;;;20.40;99.90;;;;;;5048555;28;20021;-75
2022/08/03 06:21:49;;;;;;;11.80;4.15;;;20.50;99.90;;;;;;5049037;28;20048;-74
2022/08/03 06:24:15;;;;;;;9.77;5.10;;;20.60;99.90;;;;;;5051157;28;20053;-74
2022/08/03 06:26:41;;;;;;;10.35;4.47;;;20.50;99.90;;;;;;5052114;28;20017;-74
2022/08/03 06:29:06;;;;;;;9.40;4.85;;;20.70;99.90;;;;;;5052857;28;20123;-74
2022/08/03 06:31:32;;;;;;;10.93;5.03;;;20.60;99.90;;;;;;5034166;28;20033;-74
2022/08/03 06:33:57;;;;;;;9.43;4.35;;;20.60;99.90;;;;;;5053202;28;20032;-73
2022/08/03 06:36:24;;;;;;;12.90;5.22;;;20.50;99.90;;;;;;5052271;28;20471;-74
2022/08/03 06:38:50;;;;;;;9.48;4.70;;;20.80;99.90;;;;;;5053237;28;20028;-74
2022/08/03 06:41:15;;;;;;;10.13;5.38;;;20.90;99.90;;;;;;5052829;28;20075;-74
2022/08/03 06:43:41;;;;;;;10.15;5.05;;;20.90;99.90;;;;;;5053021;28;20037;-74
2022/08/03 06:46:06;;;;;;;12.10;4.72;;;21.00;99.90;;;;;;5052345;28;20071;-74
2022/08/03 06:48:32;;;;;;;10.52;4.75;;;21.10;99.90;;;;;;5049971;28;20539;-74
2022/08/03 06:50:58;;;;;;;9.32;5.15;;;21.70;99.90;;;;;;5052815;28;20031;-74
2022/08/03 06:53:23;;;;;;;11.02;5.30;;;21.20;99.90;;;;;;5049456;28;20029;-74
2022/08/03 06:55:49;;;;;;;8.65;4.82;;;21.10;99.90;;;;;;5045181;28;20082;-74
2022/08/03 06:58:14;;;;;;;14.13;4.85;;;21.40;99.90;;;;;;5050686;28;20021;-74
2022/08/03 07:00:40;;;;;;;9.85;4.68;;;21.30;99.90;;;;;;5048911;28;20033;-74
2022/08/03 07:03:06;;;;;;;7.05;4.25;;;21.40;99.90;;;;;;5050037;28;20455;-74
2022/08/03 07:05:33;;;;;;;10.15;4.68;;;21.50;99.90;;;;;;5046586;28;20474;-74
2022/08/03 07:08:00;;;;;;;13.48;4.32;;;22.10;99.90;;;;;;5050975;28;20449;-76
2022/08/03 07:10:26;;;;;;;11.35;3.72;;;21.60;99.90;;;;;;5050737;28;20474;-75
2022/08/03 07:12:52;;;;;;;10.55;3.45;;;21.60;99.90;;;;;;5050384;28;20021;-74
2022/08/03 07:15:17;;;;;;;7.63;2.97;;;21.70;99.90;;;;;;5050122;28;20060;-74
2022/08/03 07:17:43;;;;;;;11.73;3.42;;;21.70;99.90;;;;;;5050942;28;20067;-73
2022/08/03 07:20:09;;;;;;;10.15;3.33;;;21.70;99.90;;;;;;5051777;28;20032;-73
2022/08/03 07:22:35;;;;;;;8.63;3.35;;;22.20;99.90;;;;;;5050126;28;20075;-72
2022/08/03 07:25:00;;;;;;;7.93;2.90;;;21.90;99.90;;;;;;5047188;28;20036;-74
2022/08/03 07:27:27;;;;;;;8.02;2.50;;;21.80;99.90;;;;;;5048881;28;20029;-74
2022/08/03 07:29:53;;;;;;;13.35;2.90;;;24.70;99.90;;;;;;5051125;28;20474;-74
2022/08/03 07:32:19;;;;;;;13.85;3.05;;;22.70;99.90;;;;;;5045336;28;20017;-73
2022/08/03 07:34:44;;;;;;;11.60;3.17;;;22.40;99.90;;;;;;5048739;28;20429;-73
2022/08/03 07:37:10;;;;;;;7.38;2.67;;;22.30;99.90;;;;;;5049717;28;20086;-73
2022/08/03 07:39:35;;;;;;;9.48;2.83;;;22.40;99.90;;;;;;5050315;28;20033;-71
2022/08/03 07:42:01;;;;;;;8.38;2.50;;;22.40;99.90;;;;;;5050514;28;20029;-72
2022/08/03 07:44:26;;;;;;;14.52;3.58;;;22.70;99.90;;;;;;5049305;28;20037;-74
2022/08/03 07:46:52;;;;;;;9.13;3.00;;;22.60;99.90;;;;;;5048774;28;20385;-74
2022/08/03 07:49:17;;;;;;;7.35;2.00;;;22.70;99.90;;;;;;5050243;28;20032;-75
2022/08/03 07:51:43;;;;;;;9.00;2.78;;;22.90;99.90;;;;;;5046422;28;20024;-74
2022/08/03 07:54:09;;;;;;;7.22;2.60;;;22.90;99.90;;;;;;5048832;28;20036;-73
2022/08/03 07:56:35;;;;;;;9.20;2.70;;;23.00;99.90;;;;;;5048294;28;20024;-74
2022/08/03 07:59:01;;;;;;;8.35;2.60;;;23.10;99.90;;;;;;5050492;28;20025;-74
2022/08/03 08:01:27;;;;;;;11.13;2.83;;;23.30;99.90;;;;;;5049043;28;20032;-74
2022/08/03 08:03:53;;;;;;;10.05;2.63;;;23.40;99.90;;;;;;5051150;28;20040;-73
2022/08/03 08:06:20;;;;;;;8.02;2.67;;;23.30;99.70;;;;;;5045768;28;20029;-74
2022/08/03 08:08:45;;;;;;;6.20;2.40;;;23.60;99.70;;;;;;5050723;28;20489;-74
2022/08/03 08:11:11;;;;;;;7.28;2.65;;;23.50;99.50;;;;;;5049942;28;20051;-74
2022/08/03 08:13:37;;;;;;;7.63;2.08;;;23.50;99.30;;;;;;5047628;28;20036;-74
2022/08/03 08:16:03;;;;;;;8.65;2.83;;;23.60;99.20;;;;;;5049107;28;20060;-75
2022/08/03 08:18:29;;;;;;;9.15;3.17;;;23.60;99.10;;;;;;5050261;28;20344;-74
2022/08/03 08:20:55;;;;;;;8.93;3.00;;;23.60;98.90;;;;;;5050763;28;20035;-74
2022/08/03 08:23:23;;;;;;;10.23;2.63;;;23.80;99.30;;;;;;5049597;28;20041;-74
2022/08/03 08:25:50;;;;;;;10.85;2.83;;;23.70;98.20;;;;;;5037376;28;20409;-74
2022/08/03 08:28:17;;;;;;;9.45;2.42;;;23.60;98.80;;;;;;5048499;28;20083;-73
2022/08/03 08:30:43;;;;;;;10.18;2.60;;;23.80;98.70;;;;;;5044314;28;20498;-74
2022/08/03 08:33:08;;;;;;;12.05;3.45;;;23.90;98.40;;;;;;5047014;28;20033;-74
2022/08/03 08:35:34;;;;;;;12.38;2.92;;;23.90;98.20;;;;;;5049633;28;20022;-74
2022/08/03 08:38:00;;;;;;;15.18;3.85;;;23.50;98.00;;;;;;5048394;28;20036;-74
2022/08/03 08:40:26;;;;;;;13.63;2.45;;;24.00;98.00;;;;;;5049262;28;20482;-74
2022/08/03 08:42:52;;;;;;;10.00;2.38;;;24.10;98.00;;;;;;5021070;28;20082;-74
2022/08/03 08:45:18;;;;;;;14.75;3.22;;;24.10;97.70;;;;;;5048538;28;20424;-76
2022/08/03 08:47:46;;;;;;;12.25;3.30;;;24.20;97.60;;;;;;5044550;28;20017;-74
2022/08/03 08:50:12;;;;;;;8.23;2.35;;;24.50;97.70;;;;;;5048479;28;20029;-73
2022/08/03 08:52:42;;;;;;;9.10;2.65;;;24.30;97.40;;;;;;5050199;28;20469;-73
2022/08/03 08:55:12;;;;;;;6.22;2.50;;;24.40;97.50;;;;;;5045663;28;20032;-74
2022/08/03 08:57:46;;;;;;;8.55;2.83;;;24.60;97.20;;;;;;5026966;28;20390;-74
2022/08/03 09:00:13;;;;;;;6.05;2.30;;;25.50;97.40;;;;;;5048350;28;20029;-74
2022/08/03 09:02:41;;;;;;;11.65;2.45;;;24.50;96.70;;;;;;5047029;28;20436;-74
2022/08/03 09:05:10;;;;;;;7.40;2.40;;;25.30;96.90;;;;;;5048604;28;20060;-74
2022/08/03 09:07:36;;;;;;;12.60;3.33;;;25.70;97.10;;;;;;5048906;28;20028;-74
2022/08/03 09:10:01;;;;;;;10.30;2.47;;;24.90;96.30;;;;;;5048945;28;20037;-73
2022/08/03 09:12:27;;;;;;;8.23;2.50;;;24.80;96.00;;;;;;5047143;28;20057;-73
2022/08/03 09:14:54;;;;;;;10.02;2.25;;;24.90;95.80;;;;;;5048776;28;20093;-73
2022/08/03 09:17:20;;;;;;;13.05;2.33;;;24.90;95.70;;;;;;5046923;28;20056;-74
2022/08/03 09:20:06;;;;;;;7.20;2.65;;;25.00;95.40;;;;;;5049595;28;20723;-73
2022/08/03 09:22:32;;;;;;;10.77;2.78;;;25.00;95.40;;;;;;5047087;28;20499;-73
2022/08/03 09:25:04;;;;;;;14.88;2.95;;;25.10;94.80;;;;;;5048333;28;20033;-74
2022/08/03 09:27:44;;;;;;;12.60;2.45;;;25.10;94.60;;;;;;5044607;28;20424;-74
2022/08/03 09:30:17;;;;;;;14.73;2.80;;;25.20;94.30;;;;;;5046749;28;20045;-75
2022/08/03 09:32:44;;;;;;;;;;;25.30;95.10;;;;;;5029877;28;20118;-75
2022/08/03 09:35:12;;;;;;;11.93;2.67;;;26.30;95.60;;;;;;5047069;28;19963;-75
2022/08/03 09:37:38;;;;;;;9.43;2.33;;;25.80;94.90;;;;;;5047687;28;20024;-74
2022/08/03 09:40:04;;;;;;;10.55;2.35;;;25.50;94.60;;;;;;5046987;28;20083;-73
2022/08/03 09:42:30;;;;;;;8.98;2.03;;;25.50;94.30;;;;;;5046485;28;20481;-73
2022/08/03 09:44:56;;;;;;;10.07;2.20;;;26.40;94.60;;;;;;5046345;28;20064;-73
2022/08/03 09:47:30;;;;;;;17.05;2.90;;;25.60;94.20;;;;;;5046281;28;20150;-72
2022/08/03 09:50:06;;;;;;;11.15;2.40;;;25.70;94.40;;;;;;5047263;28;20088;-74
2022/08/03 09:52:39;;;;;;;12.10;2.60;;;25.60;93.30;;;;;;5045794;28;20109;-73
2022/08/03 09:55:11;;;;;;;9.20;2.25;;;25.80;94.20;;;;;;5045209;28;20049;-74
2022/08/03 09:57:36;;;;;;;14.35;3.00;;;25.80;94.10;;;;;;5047216;28;20148;-74
2022/08/03 10:00:14;;;;;;;10.65;2.95;;;25.70;93.70;;;;;;5047780;28;20115;-74
2022/08/03 10:02:41;;;;;;;10.73;1.98;;;25.80;93.80;;;;;;5046094;28;20040;-74
2022/08/03 10:05:10;;;;;;;7.80;2.30;;;25.70;93.80;;;;;;5046925;28;20033;-74
2022/08/03 10:07:44;;;;;;;11.18;2.78;;;25.90;93.70;;;;;;5043391;28;20023;-74
2022/08/03 10:10:10;;;;;;;10.65;2.22;;;25.90;93.80;;;;;;5047351;28;20046;-74
2022/08/03 10:12:37;;;;;;;6.95;1.92;;;25.90;93.50;;;;;;5027673;28;20025;-74
2022/08/03 10:15:04;;;;;;;10.55;2.70;;;26.00;93.30;;;;;;5048351;28;20025;-75
2022/08/03 10:17:29;;;;;;;14.88;2.65;;;26.10;93.00;;;;;;5045916;28;20547;-75
2022/08/03 10:19:56;;;;;;;9.82;2.00;;;26.30;93.00;;;;;;5043438;28;20025;-73
2022/08/03 10:22:23;;;;;;;9.40;1.65;;;26.10;92.90;;;;;;5048176;28;20028;-75
2022/08/03 10:25:08;;;;;;;10.43;2.50;;;26.40;93.10;;;;;;5048491;28;20029;-74
2022/08/03 10:27:36;;;;;;;11.13;2.63;;;26.30;92.30;;;;;;5043439;28;20049;-74
2022/08/03 10:30:08;;;;;;;7.82;2.38;;;26.30;92.70;;;;;;5044399;28;20064;-74
2022/08/03 10:32:39;;;;;;;8.98;2.28;;;26.40;91.70;;;;;;5044500;28;20025;-74
2022/08/03 10:35:10;;;;;;;11.65;2.67;;;26.20;92.30;;;;;;5047729;28;20013;-74
2022/08/03 10:37:40;;;;;;;15.48;2.63;;;26.50;91.30;;;;;;5043937;28;20061;-74
2022/08/03 10:40:08;;;;;;;10.23;2.42;;;26.50;92.00;;;;;;5048643;28;20462;-74
2022/08/03 10:42:34;;;;;;;6.68;1.30;;;26.70;91.50;;;;;;5047392;28;20026;-73
2022/08/03 10:45:18;;;;;;;14.23;2.60;;;26.60;91.60;;;;;;5048113;28;20048;-72
2022/08/03 10:47:45;;;;;;;13.38;2.25;;;26.70;91.00;;;;;;5046332;28;20055;-72
2022/08/03 10:50:11;;;;;;;11.35;1.83;;;26.70;91.60;;;;;;5048221;28;20049;-74
2022/08/03 10:52:53;;;;;;;6.43;2.00;;;26.80;91.40;;;;;;5047869;28;20029;-73
2022/08/03 10:58:35;;;;;;;11.85;2.70;;;27.00;90.90;;;;;;5043846;28;20032;-74
2022/08/03 11:01:01;;;;;;;8.25;1.80;;;24.40;90.70;;;;;;5041077;28;20549;-74
2022/08/03 11:03:27;;;;;;;12.10;2.40;;;27.00;91.00;;;;;;5047784;28;20386;-73
2022/08/03 11:06:12;;;;;;;9.73;1.92;;;26.80;90.90;;;;;;5047993;28;20099;-74
2022/08/03 11:08:38;;;;;;;9.00;2.35;;;26.90;90.90;;;;;;5048127;28;20024;-74
2022/08/03 11:11:16;;;;;;;16.15;2.85;;;27.00;90.90;;;;;;5052053;28;20378;-74
2022/08/03 11:14:09;;;;;;;7.40;1.85;;;27.20;91.20;;;;;;5047189;28;20398;-74
2022/08/03 11:16:40;;;;;;;10.45;1.75;;;27.20;90.10;;;;;;5046188;28;20044;-73
2022/08/03 11:19:09;;;;;;;5.22;1.58;;;27.20;89.50;;;;;;5051647;28;20029;-75
2022/08/03 11:21:47;;;;;;;8.45;2.03;;;28.00;90.50;;;;;;5050931;28;20020;-72
2022/08/03 11:24:42;;;;;;;5.55;1.83;;;27.40;90.30;;;;;;5049381;28;20041;-73
2022/08/03 11:27:17;;;;;;;7.40;2.20;;;27.50;89.10;;;;;;5050002;28;20045;-73
2022/08/03 11:30:25;;;;;;;8.60;1.70;;;27.40;88.50;;;;;;5051129;28;20053;-73
2022/08/03 11:32:51;;;;;;;9.80;2.50;;;27.50;88.20;;;;;;5048762;28;20497;-73
2022/08/03 11:35:21;;;;;;;7.93;2.15;;;27.70;89.10;;;;;;5051069;28;20029;-73
2022/08/03 11:37:53;;;;;;;6.43;1.63;;;27.50;87.50;;;;;;5050004;28;20025;-74
2022/08/03 11:40:47;;;;;;;10.57;1.88;;;27.70;87.60;;;;;;5051575;28;20021;-75
2022/08/03 11:43:28;;;;;;;9.05;1.65;;;27.70;85.70;;;;;;5050917;28;20116;-75
2022/08/03 11:46:01;;;;;;;12.10;1.52;;;27.70;85.20;;;;;;5051041;28;20029;-76
2022/08/03 11:48:37;;;;;;;8.77;1.63;;;27.70;84.30;;;;;;5049108;28;20597;-74
2022/08/03 11:51:06;;;;;;;9.95;1.60;;;27.70;84.90;;;;;;5050819;28;20107;-74
2022/08/03 11:53:32;;;;;;;9.60;1.98;;;27.80;84.70;;;;;;5047610;28;20017;-75
2022/08/03 11:55:59;;;;;;;7.32;1.70;;;27.80;83.20;;;;;;5050660;28;20334;-75
2022/08/03 11:58:25;;;;;;;8.38;2.15;;;28.00;82.60;;;;;;5041361;28;20100;-74
2022/08/03 12:00:51;;;;;;;11.50;2.22;;;28.10;81.60;;;;;;5050515;28;20116;-74
2022/08/03 12:03:19;;;;;;;6.43;1.85;;;28.80;81.40;;;;;;5050078;28;20114;-74
2022/08/03 12:05:51;;;;;;;11.20;1.95;;;27.90;81.20;;;;;;5050876;28;20482;-74
2022/08/03 12:08:31;;;;;;;12.90;2.08;;;28.00;78.40;;;;;;5050627;28;20020;-74
2022/08/03 12:11:00;;;;;;;7.80;2.38;;;28.00;78.90;;;;;;5050228;28;20025;-74
2022/08/03 12:13:26;;;;;;;14.52;2.90;;;29.00;80.80;;;;;;5049084;28;20028;-73
2022/08/03 12:15:57;;;;;;;7.38;2.00;;;28.00;79.90;;;;;;5050596;28;20021;-73
2022/08/03 12:18:24;;;;;;;8.70;1.85;;;28.30;80.60;;;;;;5045612;28;20033;-74
2022/08/03 12:20:52;;;;;;;9.73;2.13;;;28.40;79.70;;;;;;5049785;28;20025;-73
2022/08/03 12:23:18;;;;;;;8.75;2.00;;;28.30;79.40;;;;;;5049268;28;20043;-74
2022/08/03 12:25:45;;;;;;;7.18;2.70;;;28.40;79.10;;;;;;5044756;28;20112;-74
2022/08/03 12:28:15;;;;;;;5.00;1.40;;;28.60;78.80;;;;;;5050068;28;20031;-73
2022/08/03 12:30:41;;;;;;;14.82;1.90;;;28.80;78.20;;;;;;5050212;28;20035;-73
2022/08/03 12:33:26;;;;;;;9.52;2.22;;;28.50;77.50;;;;;;5050415;28;20111;-74
2022/08/03 12:36:09;;;;;;;6.63;2.08;;;28.60;76.80;;;;;;5049931;28;20057;-73
2022/08/03 12:38:37;;;;;;;6.72;1.75;;;28.70;76.60;;;;;;5050310;28;20028;-73
2022/08/03 12:41:12;;;;;;;7.93;1.77;;;29.70;78.20;;;;;;5049985;28;20033;-73
2022/08/03 12:43:50;;;;;;;8.13;1.10;;;28.80;77.70;;;;;;5049259;28;20136;-74
2022/08/03 12:46:17;;;;;;;6.88;0.85;;;28.80;77.20;;;;;;5049716;28;20017;-73
2022/08/03 12:49:14;;;;;;;6.53;1.42;;;28.80;76.80;;;;;;5048900;28;20052;-73
2022/08/03 12:51:42;;;;;;;6.60;1.00;;;28.90;75.00;;;;;;5048662;28;20074;-72
2022/08/03 12:54:14;;;;;;;9.55;1.38;;;29.00;76.00;;;;;;5038354;28;20210;-73
2022/08/03 12:57:12;;;;;;;6.90;1.23;;;29.20;74.90;;;;;;5049108;28;20025;-73
2022/08/03 12:59:44;;;;;;;7.93;1.25;;;29.30;73.70;;;;;;5026768;28;20768;-74
2022/08/03 13:02:24;;;;;;;5.88;1.08;;;29.30;74.90;;;;;;5049426;28;20025;-73